sensor_id;sensor_type;location;lat;lon;timestamp;temperature;humidity
23719;DHT22;43322;52.230;5.702;2023-07-02T00:01:25;17.00;99.90
23719;DHT22;43322;52.230;5.702;2023-07-02T00:03:52;16.90;99.90
23719;DHT22;43322;52.230;5.702;2023-07-02T00:06:20;16.90;99.90
23719;DHT22;43322;52.230;5.702;2023-07-02T00:08:47;17.00;99.90
23719;DHT22;43322;52.230;5.702;2023-07-02T00:11:16;17.00;99.90
23719;DHT22;43322;52.230;5.702;2023-07-02T00:13:42;17.00;99.90
23719;DHT22;43322;52.230;5.702;2023-07-02T00:16:09;17.00;99.90
23719;DHT22;43322;52.230;5.702;2023-07-02T00:18:36;17.00;99.90
23719;DHT22;43322;52.230;5.702;2023-07-02T00:21:02;16.90;99.90
23719;DHT22;43322;52.230;5.702;2023-07-02T00:23:30;16.80;99.90
23719;DHT22;43322;52.230;5.702;2023-07-02T00:25:57;16.80;99.90
23719;DHT22;43322;52.230;5.702;2023-07-02T00:28:24;16.80;99.90
23719;DHT22;43322;52.230;5.702;2023-07-02T00:30:50;16.80;99.90
23719;DHT22;43322;52.230;5.702;2023-07-02T00:33:17;16.90;99.90
23719;DHT22;43322;52.230;5.702;2023-07-02T00:35:44;16.90;99.90
23719;DHT22;43322;52.230;5.702;2023-07-02T00:38:10;16.90;99.90
23719;DHT22;43322;52.230;5.702;2023-07-02T00:40:38;16.90;99.90
23719;DHT22;43322;52.230;5.702;2023-07-02T00:43:05;16.80;99.90
23719;DHT22;43322;52.230;5.702;2023-07-02T00:45:35;16.90;99.90
23719;DHT22;43322;52.230;5.702;2023-07-02T00:48:04;16.80;99.90
23719;DHT22;43322;52.230;5.702;2023-07-02T00:50:31;16.80;99.90
23719;DHT22;43322;52.230;5.702;2023-07-02T00:52:57;16.80;99.90
23719;DHT22;43322;52.230;5.702;2023-07-02T00:55:24;16.80;99.90
23719;DHT22;43322;52.230;5.702;2023-07-02T00:57:52;16.80;99.90
23719;DHT22;43322;52.230;5.702;2023-07-02T01:00:19;16.80;99.90
23719;DHT22;43322;52.230;5.702;2023-07-02T01:02:53;16.80;99.90
23719;DHT22;43322;52.230;5.702;2023-07-02T01:05:23;16.80;99.90
23719;DHT22;43322;52.230;5.702;2023-07-02T01:07:49;16.80;99.90
23719;DHT22;43322;52.230;5.702;2023-07-02T01:10:16;16.80;99.90
23719;DHT22;43322;52.230;5.702;2023-07-02T01:12:44;16.80;99.90
23719;DHT22;43322;52.230;5.702;2023-07-02T01:15:12;16.80;99.90
23719;DHT22;43322;52.230;5.702;2023-07-02T01:17:39;16.70;99.90
23719;DHT22;43322;52.230;5.702;2023-07-02T01:20:09;16.70;99.90
23719;DHT22;43322;52.230;5.702;2023-07-02T01:22:37;16.70;99.90
23719;DHT22;43322;52.230;5.702;2023-07-02T01:25:05;16.60;99.90
23719;DHT22;43322;52.230;5.702;2023-07-02T01:27:34;16.60;99.90
23719;DHT22;43322;52.230;5.702;2023-07-02T01:30:01;16.60;99.90
23719;DHT22;43322;52.230;5.702;2023-07-02T01:32:29;16.70;99.90
23719;DHT22;43322;52.230;5.702;2023-07-02T01:34:56;16.60;99.90
23719;DHT22;43322;52.230;5.702;2023-07-02T01:37:25;16.50;99.90
23719;DHT22;43322;52.230;5.702;2023-07-02T01:39:52;16.40;99.90
23719;DHT22;43322;52.230;5.702;2023-07-02T01:42:19;16.90;99.90
23719;DHT22;43322;52.230;5.702;2023-07-02T01:44:48;16.20;99.90
23719;DHT22;43322;52.230;5.702;2023-07-02T01:47:16;16.10;99.90
23719;DHT22;43322;52.230;5.702;2023-07-02T01:49:45;16.00;99.90
23719;DHT22;43322;52.230;5.702;2023-07-02T01:52:12;15.90;99.90
23719;DHT22;43322;52.230;5.702;2023-07-02T01:54:40;15.90;99.90
23719;DHT22;43322;52.230;5.702;2023-07-02T01:57:06;15.80;99.90
23719;DHT22;43322;52.230;5.702;2023-07-02T01:59:34;15.70;99.90
23719;DHT22;43322;52.230;5.702;2023-07-02T02:02:00;15.70;99.90
23719;DHT22;43322;52.230;5.702;2023-07-02T02:04:27;15.70;99.90
23719;DHT22;43322;52.230;5.702;2023-07-02T02:06:54;15.60;99.90
23719;DHT22;43322;52.230;5.702;2023-07-02T02:09:21;15.60;99.90
23719;DHT22;43322;52.230;5.702;2023-07-02T02:11:50;15.50;99.90
23719;DHT22;43322;52.230;5.702;2023-07-02T02:14:17;15.60;99.90
23719;DHT22;43322;52.230;5.702;2023-07-02T02:16:44;15.40;99.90
23719;DHT22;43322;52.230;5.702;2023-07-02T02:19:12;15.40;99.90
23719;DHT22;43322;52.230;5.702;2023-07-02T02:21:40;15.30;99.90
23719;DHT22;43322;52.230;5.702;2023-07-02T02:24:07;15.20;99.90
23719;DHT22;43322;52.230;5.702;2023-07-02T02:26:33;15.20;99.90
23719;DHT22;43322;52.230;5.702;2023-07-02T02:29:01;15.10;99.90
23719;DHT22;43322;52.230;5.702;2023-07-02T02:31:28;15.00;99.90
23719;DHT22;43322;52.230;5.702;2023-07-02T02:33:56;14.80;99.90
23719;DHT22;43322;52.230;5.702;2023-07-02T02:36:23;14.80;99.90
23719;DHT22;43322;52.230;5.702;2023-07-02T02:38:49;14.80;99.90
23719;DHT22;43322;52.230;5.702;2023-07-02T02:41:16;14.80;99.90
23719;DHT22;43322;52.230;5.702;2023-07-02T02:43:43;14.70;99.90
23719;DHT22;43322;52.230;5.702;2023-07-02T02:46:11;14.70;99.90
23719;DHT22;43322;52.230;5.702;2023-07-02T02:48:38;14.60;99.90
23719;DHT22;43322;52.230;5.702;2023-07-02T02:51:05;14.60;99.90
23719;DHT22;43322;52.230;5.702;2023-07-02T02:53:31;14.60;99.90
23719;DHT22;43322;52.230;5.702;2023-07-02T02:55:58;14.60;99.90
23719;DHT22;43322;52.230;5.702;2023-07-02T02:58:25;14.60;99.90
23719;DHT22;43322;52.230;5.702;2023-07-02T03:00:53;14.50;99.90
23719;DHT22;43322;52.230;5.702;2023-07-02T03:03:21;14.50;99.90
23719;DHT22;43322;52.230;5.702;2023-07-02T03:05:49;14.40;99.90
23719;DHT22;43322;52.230;5.702;2023-07-02T03:08:16;14.30;99.90
23719;DHT22;43322;52.230;5.702;2023-07-02T03:10:43;14.20;99.90
23719;DHT22;43322;52.230;5.702;2023-07-02T03:13:10;14.20;99.90
23719;DHT22;43322;52.230;5.702;2023-07-02T03:15:36;14.20;99.90
23719;DHT22;43322;52.230;5.702;2023-07-02T03:18:03;14.10;99.90
23719;DHT22;43322;52.230;5.702;2023-07-02T03:20:31;14.00;99.90
23719;DHT22;43322;52.230;5.702;2023-07-02T03:22:58;14.00;99.90
23719;DHT22;43322;52.230;5.702;2023-07-02T03:25:24;14.00;99.90
23719;DHT22;43322;52.230;5.702;2023-07-02T03:27:51;14.00;99.90
23719;DHT22;43322;52.230;5.702;2023-07-02T03:30:18;14.00;99.90
23719;DHT22;43322;52.230;5.702;2023-07-02T03:32:45;14.10;99.90
23719;DHT22;43322;52.230;5.702;2023-07-02T03:35:11;13.90;99.90
23719;DHT22;43322;52.230;5.702;2023-07-02T03:37:39;14.00;99.90
23719;DHT22;43322;52.230;5.702;2023-07-02T03:40:08;14.00;99.90
23719;DHT22;43322;52.230;5.702;2023-07-02T03:42:34;14.00;99.90
23719;DHT22;43322;52.230;5.702;2023-07-02T03:45:01;14.00;99.90
23719;DHT22;43322;52.230;5.702;2023-07-02T03:47:28;14.00;99.90
23719;DHT22;43322;52.230;5.702;2023-07-02T03:49:55;14.00;99.90
23719;DHT22;43322;52.230;5.702;2023-07-02T03:52:22;14.10;99.90
23719;DHT22;43322;52.230;5.702;2023-07-02T03:54:50;14.10;99.90
23719;DHT22;43322;52.230;5.702;2023-07-02T03:57:16;14.10;99.90
23719;DHT22;43322;52.230;5.702;2023-07-02T03:59:43;14.00;99.90
23719;DHT22;43322;52.230;5.702;2023-07-02T04:02:10;14.00;99.90
23719;DHT22;43322;52.230;5.702;2023-07-02T04:04:36;14.10;99.90
23719;DHT22;43322;52.230;5.702;2023-07-02T04:07:03;14.10;99.90
23719;DHT22;43322;52.230;5.702;2023-07-02T04:09:30;14.10;99.90
23719;DHT22;43322;52.230;5.702;2023-07-02T04:11:59;14.10;99.90
23719;DHT22;43322;52.230;5.702;2023-07-02T04:14:26;14.10;99.90
23719;DHT22;43322;52.230;5.702;2023-07-02T04:16:53;14.10;99.90
23719;DHT22;43322;52.230;5.702;2023-07-02T04:19:19;14.10;99.90
23719;DHT22;43322;52.230;5.702;2023-07-02T04:21:46;14.10;99.90
23719;DHT22;43322;52.230;5.702;2023-07-02T04:24:12;14.10;99.90
23719;DHT22;43322;52.230;5.702;2023-07-02T04:26:39;14.20;99.90
23719;DHT22;43322;52.230;5.702;2023-07-02T04:29:09;14.20;99.90
23719;DHT22;43322;52.230;5.702;2023-07-02T04:31:36;14.20;99.90
23719;DHT22;43322;52.230;5.702;2023-07-02T04:34:03;14.30;99.90
23719;DHT22;43322;52.230;5.702;2023-07-02T04:36:31;14.30;99.90
23719;DHT22;43322;52.230;5.702;2023-07-02T04:38:57;14.30;99.90
23719;DHT22;43322;52.230;5.702;2023-07-02T04:41:24;14.40;99.90
23719;DHT22;43322;52.230;5.702;2023-07-02T04:43:51;14.40;99.90
23719;DHT22;43322;52.230;5.702;2023-07-02T04:46:19;14.40;99.90
23719;DHT22;43322;52.230;5.702;2023-07-02T04:48:45;14.40;99.90
23719;DHT22;43322;52.230;5.702;2023-07-02T04:51:12;14.50;99.90
23719;DHT22;43322;52.230;5.702;2023-07-02T04:53:39;14.50;99.90
23719;DHT22;43322;52.230;5.702;2023-07-02T04:56:06;14.50;99.90
23719;DHT22;43322;52.230;5.702;2023-07-02T04:58:32;14.60;99.90
23719;DHT22;43322;52.230;5.702;2023-07-02T05:00:59;14.60;99.90
23719;DHT22;43322;52.230;5.702;2023-07-02T05:03:27;14.60;99.90
23719;DHT22;43322;52.230;5.702;2023-07-02T05:05:54;14.60;99.90
23719;DHT22;43322;52.230;5.702;2023-07-02T05:08:21;14.60;99.90
23719;DHT22;43322;52.230;5.702;2023-07-02T05:10:47;14.60;99.90
23719;DHT22;43322;52.230;5.702;2023-07-02T05:13:14;14.70;99.90
23719;DHT22;43322;52.230;5.702;2023-07-02T05:15:41;14.70;99.90
23719;DHT22;43322;52.230;5.702;2023-07-02T05:18:08;14.80;99.90
23719;DHT22;43322;52.230;5.702;2023-07-02T05:20:36;14.90;99.90
23719;DHT22;43322;52.230;5.702;2023-07-02T05:23:02;14.90;99.90
23719;DHT22;43322;52.230;5.702;2023-07-02T05:25:29;14.90;99.90
23719;DHT22;43322;52.230;5.702;2023-07-02T05:27:58;15.00;99.90
23719;DHT22;43322;52.230;5.702;2023-07-02T05:30:24;15.00;99.90
23719;DHT22;43322;52.230;5.702;2023-07-02T05:32:51;15.20;99.90
23719;DHT22;43322;52.230;5.702;2023-07-02T05:35:17;15.10;99.90
23719;DHT22;43322;52.230;5.702;2023-07-02T05:37:45;15.10;99.90
23719;DHT22;43322;52.230;5.702;2023-07-02T05:40:12;15.20;99.90
23719;DHT22;43322;52.230;5.702;2023-07-02T05:42:39;15.30;99.90
23719;DHT22;43322;52.230;5.702;2023-07-02T05:45:06;15.20;99.90
23719;DHT22;43322;52.230;5.702;2023-07-02T05:47:33;15.20;99.90
23719;DHT22;43322;52.230;5.702;2023-07-02T05:50:00;15.30;99.90
23719;DHT22;43322;52.230;5.702;2023-07-02T05:52:26;15.30;99.90
23719;DHT22;43322;52.230;5.702;2023-07-02T05:54:54;15.40;99.90
23719;DHT22;43322;52.230;5.702;2023-07-02T05:57:21;15.50;99.90
23719;DHT22;43322;52.230;5.702;2023-07-02T05:59:47;15.60;99.90
23719;DHT22;43322;52.230;5.702;2023-07-02T06:02:14;15.70;99.90
23719;DHT22;43322;52.230;5.702;2023-07-02T06:04:41;15.70;99.90
23719;DHT22;43322;52.230;5.702;2023-07-02T06:07:07;15.70;99.90
23719;DHT22;43322;52.230;5.702;2023-07-02T06:09:34;15.70;99.90
23719;DHT22;43322;52.230;5.702;2023-07-02T06:12:02;15.70;99.90
23719;DHT22;43322;52.230;5.702;2023-07-02T06:14:29;15.80;99.90
23719;DHT22;43322;52.230;5.702;2023-07-02T06:16:56;15.80;99.90
23719;DHT22;43322;52.230;5.702;2023-07-02T06:19:24;15.90;99.90
23719;DHT22;43322;52.230;5.702;2023-07-02T06:21:51;15.80;99.90
23719;DHT22;43322;52.230;5.702;2023-07-02T06:24:18;15.90;99.90
23719;DHT22;43322;52.230;5.702;2023-07-02T06:26:45;16.00;99.90
23719;DHT22;43322;52.230;5.702;2023-07-02T06:29:13;16.00;99.90
23719;DHT22;43322;52.230;5.702;2023-07-02T06:31:40;16.10;99.90
23719;DHT22;43322;52.230;5.702;2023-07-02T06:34:06;16.10;99.90
23719;DHT22;43322;52.230;5.702;2023-07-02T06:36:34;16.20;99.90
23719;DHT22;43322;52.230;5.702;2023-07-02T06:39:00;16.30;99.90
23719;DHT22;43322;52.230;5.702;2023-07-02T06:41:27;16.40;99.90
23719;DHT22;43322;52.230;5.702;2023-07-02T06:43:54;16.50;99.90
23719;DHT22;43322;52.230;5.702;2023-07-02T06:46:22;16.60;99.90
23719;DHT22;43322;52.230;5.702;2023-07-02T06:48:49;16.60;99.90
23719;DHT22;43322;52.230;5.702;2023-07-02T06:51:15;16.80;99.90
23719;DHT22;43322;52.230;5.702;2023-07-02T06:53:44;16.80;99.90
23719;DHT22;43322;52.230;5.702;2023-07-02T06:56:11;16.70;99.90
23719;DHT22;43322;52.230;5.702;2023-07-02T06:58:39;16.70;99.90
23719;DHT22;43322;52.230;5.702;2023-07-02T07:01:06;16.90;99.90
23719;DHT22;43322;52.230;5.702;2023-07-02T07:03:34;16.70;99.90
23719;DHT22;43322;52.230;5.702;2023-07-02T07:06:01;16.70;99.90
23719;DHT22;43322;52.230;5.702;2023-07-02T07:08:28;16.70;99.90
23719;DHT22;43322;52.230;5.702;2023-07-02T07:10:54;16.90;99.90
23719;DHT22;43322;52.230;5.702;2023-07-02T07:13:21;17.00;99.90
23719;DHT22;43322;52.230;5.702;2023-07-02T07:15:48;17.10;99.90
23719;DHT22;43322;52.230;5.702;2023-07-02T07:18:14;17.20;99.90
23719;DHT22;43322;52.230;5.702;2023-07-02T07:20:45;17.40;99.90
23719;DHT22;43322;52.230;5.702;2023-07-02T07:23:11;17.30;99.90
23719;DHT22;43322;52.230;5.702;2023-07-02T07:25:38;17.40;99.90
23719;DHT22;43322;52.230;5.702;2023-07-02T07:28:05;17.40;99.90
23719;DHT22;43322;52.230;5.702;2023-07-02T07:30:31;17.40;99.90
23719;DHT22;43322;52.230;5.702;2023-07-02T07:32:58;17.50;99.90
23719;DHT22;43322;52.230;5.702;2023-07-02T07:35:25;17.70;99.90
23719;DHT22;43322;52.230;5.702;2023-07-02T07:37:53;17.70;99.90
23719;DHT22;43322;52.230;5.702;2023-07-02T07:40:19;17.60;99.90
23719;DHT22;43322;52.230;5.702;2023-07-02T07:42:46;17.40;99.90
23719;DHT22;43322;52.230;5.702;2023-07-02T07:45:13;17.20;99.90
23719;DHT22;43322;52.230;5.702;2023-07-02T07:47:39;17.40;99.90
23719;DHT22;43322;52.230;5.702;2023-07-02T07:50:07;17.80;99.90
23719;DHT22;43322;52.230;5.702;2023-07-02T07:52:40;17.80;99.90
23719;DHT22;43322;52.230;5.702;2023-07-02T07:55:09;17.60;99.90
23719;DHT22;43322;52.230;5.702;2023-07-02T07:57:36;17.50;99.90
23719;DHT22;43322;52.230;5.702;2023-07-02T08:00:04;17.40;99.90
23719;DHT22;43322;52.230;5.702;2023-07-02T08:02:31;17.10;99.90
23719;DHT22;43322;52.230;5.702;2023-07-02T08:04:58;17.10;99.90
23719;DHT22;43322;52.230;5.702;2023-07-02T08:07:25;17.20;99.90
23719;DHT22;43322;52.230;5.702;2023-07-02T08:09:51;17.50;99.90
23719;DHT22;43322;52.230;5.702;2023-07-02T08:12:19;17.80;99.90
23719;DHT22;43322;52.230;5.702;2023-07-02T08:14:46;18.00;99.90
23719;DHT22;43322;52.230;5.702;2023-07-02T08:17:13;17.80;99.90
23719;DHT22;43322;52.230;5.702;2023-07-02T08:19:39;17.90;99.90
23719;DHT22;43322;52.230;5.702;2023-07-02T08:22:06;18.30;99.90
23719;DHT22;43322;52.230;5.702;2023-07-02T08:24:33;18.40;99.90
23719;DHT22;43322;52.230;5.702;2023-07-02T08:26:59;18.30;99.90
23719;DHT22;43322;52.230;5.702;2023-07-02T08:29:29;18.40;99.90
23719;DHT22;43322;52.230;5.702;2023-07-02T08:31:55;18.20;99.90
23719;DHT22;43322;52.230;5.702;2023-07-02T08:34:22;18.10;99.90
23719;DHT22;43322;52.230;5.702;2023-07-02T08:36:49;18.30;99.90
23719;DHT22;43322;52.230;5.702;2023-07-02T08:39:16;18.20;99.90
23719;DHT22;43322;52.230;5.702;2023-07-02T08:41:44;17.80;99.90
23719;DHT22;43322;52.230;5.702;2023-07-02T08:44:11;17.50;99.90
23719;DHT22;43322;52.230;5.702;2023-07-02T08:46:40;17.30;99.90
23719;DHT22;43322;52.230;5.702;2023-07-02T08:49:08;17.60;99.90
23719;DHT22;43322;52.230;5.702;2023-07-02T08:51:35;18.00;99.90
23719;DHT22;43322;52.230;5.702;2023-07-02T08:54:02;17.90;99.90
23719;DHT22;43322;52.230;5.702;2023-07-02T08:56:29;18.20;99.90
23719;DHT22;43322;52.230;5.702;2023-07-02T08:58:55;18.60;99.90
23719;DHT22;43322;52.230;5.702;2023-07-02T09:01:22;18.80;99.90
23719;DHT22;43322;52.230;5.702;2023-07-02T09:03:50;19.10;99.90
23719;DHT22;43322;52.230;5.702;2023-07-02T09:06:18;19.00;99.90
23719;DHT22;43322;52.230;5.702;2023-07-02T09:08:45;18.60;99.90
23719;DHT22;43322;52.230;5.702;2023-07-02T09:11:12;18.40;99.90
23719;DHT22;43322;52.230;5.702;2023-07-02T09:13:47;18.60;99.90
23719;DHT22;43322;52.230;5.702;2023-07-02T09:16:22;18.50;99.90
23719;DHT22;43322;52.230;5.702;2023-07-02T09:19:03;18.30;99.90
23719;DHT22;43322;52.230;5.702;2023-07-02T09:21:42;18.60;99.90
23719;DHT22;43322;52.230;5.702;2023-07-02T09:24:16;18.80;99.90
23719;DHT22;43322;52.230;5.702;2023-07-02T09:26:44;18.60;99.90
23719;DHT22;43322;52.230;5.702;2023-07-02T09:29:12;18.40;99.90
23719;DHT22;43322;52.230;5.702;2023-07-02T09:31:45;18.10;99.90
23719;DHT22;43322;52.230;5.702;2023-07-02T09:34:14;19.00;99.90
23719;DHT22;43322;52.230;5.702;2023-07-02T09:36:41;19.40;99.90
23719;DHT22;43322;52.230;5.702;2023-07-02T09:39:11;19.40;99.90
23719;DHT22;43322;52.230;5.702;2023-07-02T09:41:38;19.00;99.90
23719;DHT22;43322;52.230;5.702;2023-07-02T09:44:06;18.70;99.90
23719;DHT22;43322;52.230;5.702;2023-07-02T09:46:34;18.90;99.90
23719;DHT22;43322;52.230;5.702;2023-07-02T09:49:03;19.30;99.90
23719;DHT22;43322;52.230;5.702;2023-07-02T09:51:32;19.30;99.90
23719;DHT22;43322;52.230;5.702;2023-07-02T09:53:58;20.00;99.90
23719;DHT22;43322;52.230;5.702;2023-07-02T09:56:25;20.30;99.90
23719;DHT22;43322;52.230;5.702;2023-07-02T09:58:52;20.10;99.90
23719;DHT22;43322;52.230;5.702;2023-07-02T10:01:18;20.00;99.90
23719;DHT22;43322;52.230;5.702;2023-07-02T10:03:45;19.60;99.90
23719;DHT22;43322;52.230;5.702;2023-07-02T10:06:12;19.30;99.90
23719;DHT22;43322;52.230;5.702;2023-07-02T10:08:40;19.10;99.90
23719;DHT22;43322;52.230;5.702;2023-07-02T10:11:11;18.80;99.90
23719;DHT22;43322;52.230;5.702;2023-07-02T10:13:38;18.80;99.90
23719;DHT22;43322;52.230;5.702;2023-07-02T10:16:06;20.00;99.90
23719;DHT22;43322;52.230;5.702;2023-07-02T10:18:33;21.40;99.90
23719;DHT22;43322;52.230;5.702;2023-07-02T10:21:00;21.90;99.90
23719;DHT22;43322;52.230;5.702;2023-07-02T10:23:40;21.50;99.90
23719;DHT22;43322;52.230;5.702;2023-07-02T10:26:10;21.30;99.90
23719;DHT22;43322;52.230;5.702;2023-07-02T10:28:37;21.10;99.90
23719;DHT22;43322;52.230;5.702;2023-07-02T10:31:03;20.20;99.90
23719;DHT22;43322;52.230;5.702;2023-07-02T10:33:30;20.00;99.90
23719;DHT22;43322;52.230;5.702;2023-07-02T10:35:57;20.80;99.90
23719;DHT22;43322;52.230;5.702;2023-07-02T10:38:24;21.00;99.90
23719;DHT22;43322;52.230;5.702;2023-07-02T10:40:55;22.00;99.90
23719;DHT22;43322;52.230;5.702;2023-07-02T10:43:25;21.70;99.20
23719;DHT22;43322;52.230;5.702;2023-07-02T10:45:53;21.90;99.90
23719;DHT22;43322;52.230;5.702;2023-07-02T10:48:20;22.20;99.60
23719;DHT22;43322;52.230;5.702;2023-07-02T10:50:46;21.30;99.30
23719;DHT22;43322;52.230;5.702;2023-07-02T10:53:17;21.50;99.90
23719;DHT22;43322;52.230;5.702;2023-07-02T10:55:44;22.00;99.90
23719;DHT22;43322;52.230;5.702;2023-07-02T10:58:12;23.00;99.90
23719;DHT22;43322;52.230;5.702;2023-07-02T11:00:43;24.20;95.80
23719;DHT22;43322;52.230;5.702;2023-07-02T11:03:16;24.80;95.10
23719;DHT22;43322;52.230;5.702;2023-07-02T11:05:44;23.40;94.00
23719;DHT22;43322;52.230;5.702;2023-07-02T11:08:11;22.40;95.00
23719;DHT22;43322;52.230;5.702;2023-07-02T11:10:38;23.50;99.90
23719;DHT22;43322;52.230;5.702;2023-07-02T11:13:13;23.30;97.40
23719;DHT22;43322;52.230;5.702;2023-07-02T11:15:40;23.10;92.50
23719;DHT22;43322;52.230;5.702;2023-07-02T11:18:10;23.00;95.10
23719;DHT22;43322;52.230;5.702;2023-07-02T11:20:38;22.00;94.50
23719;DHT22;43322;52.230;5.702;2023-07-02T11:23:15;21.50;98.50
23719;DHT22;43322;52.230;5.702;2023-07-02T11:25:42;21.80;94.70
23719;DHT22;43322;52.230;5.702;2023-07-02T11:28:21;21.70;96.50
23719;DHT22;43322;52.230;5.702;2023-07-02T11:30:48;22.70;94.30
23719;DHT22;43322;52.230;5.702;2023-07-02T11:33:14;23.30;87.90
23719;DHT22;43322;52.230;5.702;2023-07-02T11:35:41;24.10;95.30
23719;DHT22;43322;52.230;5.702;2023-07-02T11:38:08;24.40;79.50
23719;DHT22;43322;52.230;5.702;2023-07-02T11:40:35;23.90;83.30
23719;DHT22;43322;52.230;5.702;2023-07-02T11:43:02;23.50;82.50
23719;DHT22;43322;52.230;5.702;2023-07-02T11:45:30;23.80;90.00
23719;DHT22;43322;52.230;5.702;2023-07-02T11:47:57;24.60;87.30
23719;DHT22;43322;52.230;5.702;2023-07-02T11:50:23;25.70;78.00
23719;DHT22;43322;52.230;5.702;2023-07-02T11:52:50;25.70;80.00
23719;DHT22;43322;52.230;5.702;2023-07-02T11:55:17;26.10;86.60
23719;DHT22;43322;52.230;5.702;2023-07-02T11:57:44;25.00;75.80
23719;DHT22;43322;52.230;5.702;2023-07-02T12:00:12;25.20;88.40
23719;DHT22;43322;52.230;5.702;2023-07-02T12:02:40;25.90;81.30
23719;DHT22;43322;52.230;5.702;2023-07-02T12:05:08;25.00;83.90
23719;DHT22;43322;52.230;5.702;2023-07-02T12:07:34;25.70;79.00
23719;DHT22;43322;52.230;5.702;2023-07-02T12:10:01;25.80;63.50
23719;DHT22;43322;52.230;5.702;2023-07-02T12:12:28;26.00;76.20
23719;DHT22;43322;52.230;5.702;2023-07-02T12:14:54;25.90;62.30
23719;DHT22;43322;52.230;5.702;2023-07-02T12:17:21;24.60;63.40
23719;DHT22;43322;52.230;5.702;2023-07-02T12:19:49;23.00;71.20
23719;DHT22;43322;52.230;5.702;2023-07-02T12:22:16;22.50;83.00
23719;DHT22;43322;52.230;5.702;2023-07-02T12:24:43;23.00;77.00
23719;DHT22;43322;52.230;5.702;2023-07-02T12:27:10;24.10;74.80
23719;DHT22;43322;52.230;5.702;2023-07-02T12:29:38;24.20;86.10
23719;DHT22;43322;52.230;5.702;2023-07-02T12:32:05;23.30;84.20
23719;DHT22;43322;52.230;5.702;2023-07-02T12:34:32;22.90;84.50
23719;DHT22;43322;52.230;5.702;2023-07-02T12:36:59;21.90;81.50
23719;DHT22;43322;52.230;5.702;2023-07-02T12:39:26;21.60;81.40
23719;DHT22;43322;52.230;5.702;2023-07-02T12:41:53;21.30;90.90
23719;DHT22;43322;52.230;5.702;2023-07-02T12:44:19;21.90;90.70
23719;DHT22;43322;52.230;5.702;2023-07-02T12:46:46;23.40;90.50
23719;DHT22;43322;52.230;5.702;2023-07-02T12:49:13;23.80;77.00
23719;DHT22;43322;52.230;5.702;2023-07-02T12:51:39;23.10;66.50
23719;DHT22;43322;52.230;5.702;2023-07-02T12:54:07;23.00;87.30
23719;DHT22;43322;52.230;5.702;2023-07-02T12:56:34;22.90;82.70
23719;DHT22;43322;52.230;5.702;2023-07-02T12:59:02;24.20;95.50
23719;DHT22;43322;52.230;5.702;2023-07-02T13:01:28;23.60;75.00
23719;DHT22;43322;52.230;5.702;2023-07-02T13:03:55;23.00;84.30
23719;DHT22;43322;52.230;5.702;2023-07-02T13:06:22;23.60;79.30
23719;DHT22;43322;52.230;5.702;2023-07-02T13:08:49;24.10;72.10
23719;DHT22;43322;52.230;5.702;2023-07-02T13:11:17;24.80;76.20
23719;DHT22;43322;52.230;5.702;2023-07-02T13:13:44;24.40;86.10
23719;DHT22;43322;52.230;5.702;2023-07-02T13:16:10;23.90;75.70
23719;DHT22;43322;52.230;5.702;2023-07-02T13:18:37;24.20;68.90
23719;DHT22;43322;52.230;5.702;2023-07-02T13:21:04;24.40;71.30
23719;DHT22;43322;52.230;5.702;2023-07-02T13:23:30;24.30;80.20
23719;DHT22;43322;52.230;5.702;2023-07-02T13:25:57;24.40;71.60
23719;DHT22;43322;52.230;5.702;2023-07-02T13:28:25;25.10;77.80
23719;DHT22;43322;52.230;5.702;2023-07-02T13:30:53;25.70;72.00
23719;DHT22;43322;52.230;5.702;2023-07-02T13:33:20;25.70;79.30
23719;DHT22;43322;52.230;5.702;2023-07-02T13:35:46;26.20;71.20
23719;DHT22;43322;52.230;5.702;2023-07-02T13:38:13;26.00;64.90
23719;DHT22;43322;52.230;5.702;2023-07-02T13:40:40;25.60;84.50
23719;DHT22;43322;52.230;5.702;2023-07-02T13:43:09;26.30;61.60
23719;DHT22;43322;52.230;5.702;2023-07-02T13:45:37;26.50;71.30
23719;DHT22;43322;52.230;5.702;2023-07-02T13:48:04;26.40;68.50
23719;DHT22;43322;52.230;5.702;2023-07-02T13:50:31;26.50;69.40
23719;DHT22;43322;52.230;5.702;2023-07-02T13:52:58;26.30;86.50
23719;DHT22;43322;52.230;5.702;2023-07-02T13:55:26;24.90;70.20
23719;DHT22;43322;52.230;5.702;2023-07-02T13:57:54;23.50;68.70
23719;DHT22;43322;52.230;5.702;2023-07-02T14:00:23;23.70;78.30
23719;DHT22;43322;52.230;5.702;2023-07-02T14:02:50;24.80;67.40
23719;DHT22;43322;52.230;5.702;2023-07-02T14:05:18;24.60;64.30
23719;DHT22;43322;52.230;5.702;2023-07-02T14:07:44;23.60;63.70
23719;DHT22;43322;52.230;5.702;2023-07-02T14:10:11;24.40;81.80
23719;DHT22;43322;52.230;5.702;2023-07-02T14:12:38;24.80;67.40
23719;DHT22;43322;52.230;5.702;2023-07-02T14:15:06;24.50;78.50
23719;DHT22;43322;52.230;5.702;2023-07-02T14:17:34;24.00;77.70
23719;DHT22;43322;52.230;5.702;2023-07-02T14:20:01;23.50;76.90
23719;DHT22;43322;52.230;5.702;2023-07-02T14:22:28;23.10;63.30
23719;DHT22;43322;52.230;5.702;2023-07-02T14:24:54;23.20;86.40
23719;DHT22;43322;52.230;5.702;2023-07-02T14:27:21;24.40;84.70
23719;DHT22;43322;52.230;5.702;2023-07-02T14:29:48;25.10;75.30
23719;DHT22;43322;52.230;5.702;2023-07-02T14:32:15;24.00;67.40
23719;DHT22;43322;52.230;5.702;2023-07-02T14:34:43;23.20;69.90
23719;DHT22;43322;52.230;5.702;2023-07-02T14:37:09;22.60;77.10
23719;DHT22;43322;52.230;5.702;2023-07-02T14:39:36;22.40;78.20
23719;DHT22;43322;52.230;5.702;2023-07-02T14:42:04;23.00;85.80
23719;DHT22;43322;52.230;5.702;2023-07-02T14:44:32;23.30;69.50
23719;DHT22;43322;52.230;5.702;2023-07-02T14:46:59;23.00;72.80
23719;DHT22;43322;52.230;5.702;2023-07-02T14:49:25;22.80;81.90
23719;DHT22;43322;52.230;5.702;2023-07-02T14:51:53;23.30;73.80
23719;DHT22;43322;52.230;5.702;2023-07-02T14:54:20;24.00;79.80
23719;DHT22;43322;52.230;5.702;2023-07-02T14:56:46;24.50;63.30
23719;DHT22;43322;52.230;5.702;2023-07-02T14:59:13;25.20;71.60
23719;DHT22;43322;52.230;5.702;2023-07-02T15:01:40;24.90;65.60
23719;DHT22;43322;52.230;5.702;2023-07-02T15:04:06;23.80;79.90
23719;DHT22;43322;52.230;5.702;2023-07-02T15:06:33;23.10;66.80
23719;DHT22;43322;52.230;5.702;2023-07-02T15:09:01;22.40;68.10
23719;DHT22;43322;52.230;5.702;2023-07-02T15:11:28;22.10;75.10
23719;DHT22;43322;52.230;5.702;2023-07-02T15:13:55;22.10;75.60
23719;DHT22;43322;52.230;5.702;2023-07-02T15:16:23;21.90;73.50
23719;DHT22;43322;52.230;5.702;2023-07-02T15:18:50;21.50;76.40
23719;DHT22;43322;52.230;5.702;2023-07-02T15:21:16;22.00;88.00
23719;DHT22;43322;52.230;5.702;2023-07-02T15:23:44;23.20;86.50
23719;DHT22;43322;52.230;5.702;2023-07-02T15:26:12;23.40;72.80
23719;DHT22;43322;52.230;5.702;2023-07-02T15:28:40;23.30;70.30
23719;DHT22;43322;52.230;5.702;2023-07-02T15:31:09;23.70;66.70